Time;durP1;ratioP1;P1;durP2;ratioP2;P2;SDS_P1;SDS_P2;PMS_P1;PMS_P2;Temp;Humidity;BMP_temperature;BMP_pressure;BME280_temperature;BME280_humidity;BME280_pressure;Samples;Min_cycle;Max_cycle;Signal;HPM_P1;HPM_P2
2024/02/04 00:00:54;;;;;;;8.95;6.30;;;9.80;99.90;;;9.08;100.00;102989.06;4170025;28;20025;-73
2024/02/04 00:02:55;;;;;;;7.53;6.20;;;9.80;99.90;;;9.07;100.00;102981.25;4167707;28;20022;-73
2024/02/04 00:04:56;;;;;;;9.10;6.82;;;9.80;99.90;;;9.07;100.00;102976.00;4169789;28;20025;-73
2024/02/04 00:06:56;;;;;;;9.85;6.85;;;9.80;99.90;;;9.07;100.00;102973.38;4169931;28;20029;-73
2024/02/04 00:08:57;;;;;;;8.20;6.50;;;9.70;99.90;;;9.06;100.00;102971.66;4169521;28;20026;-73
2024/02/04 00:10:58;;;;;;;12.77;7.95;;;9.70;99.90;;;9.08;100.00;102975.06;4168664;28;20026;-73
2024/02/04 00:12:59;;;;;;;13.48;7.63;;;9.70;99.90;;;9.06;100.00;102971.66;4169775;28;20017;-73
2024/02/04 00:15:00;;;;;;;9.70;7.53;;;9.70;99.90;;;9.06;100.00;102969.03;4156484;28;20087;-73
2024/02/04 00:17:01;;;;;;;9.98;6.60;;;9.70;99.90;;;9.03;100.00;102967.44;4169732;28;20477;-73
2024/02/04 00:19:02;;;;;;;9.48;7.13;;;9.70;99.90;;;9.03;100.00;102979.75;4167910;28;20033;-73
2024/02/04 00:21:03;;;;;;;7.90;6.95;;;9.70;99.90;;;9.02;100.00;102985.97;4169597;28;20030;-73
2024/02/04 00:23:04;;;;;;;7.57;6.20;;;9.70;99.90;;;9.00;100.00;102978.16;4169184;28;20018;-73
2024/02/04 00:25:05;;;;;;;6.93;6.22;;;9.70;99.90;;;9.06;100.00;102985.69;4168606;28;20029;-73
2024/02/04 00:27:06;;;;;;;10.77;7.07;;;9.70;99.90;;;9.01;100.00;102990.38;4168465;28;20029;-73
2024/02/04 00:29:07;;;;;;;10.70;6.57;;;9.70;99.90;;;9.01;100.00;102987.75;4169341;28;20025;-73
2024/02/04 00:31:07;;;;;;;9.45;6.65;;;9.70;99.90;;;9.02;100.00;102976.25;4169318;28;20037;-73
2024/02/04 00:33:08;;;;;;;6.80;5.50;;;9.70;99.90;;;9.00;100.00;102975.50;4168072;28;20021;-73
2024/02/04 00:35:09;;;;;;;9.20;6.80;;;9.70;99.90;;;9.04;100.00;102984.94;4169410;28;20037;-73
2024/02/04 00:37:10;;;;;;;12.90;8.10;;;9.70;99.90;;;9.03;100.00;102988.50;4168132;28;20036;-73
2024/02/04 00:39:11;;;;;;;9.20;6.20;;;9.70;99.90;;;9.03;100.00;102996.38;4169022;28;20044;-73
2024/02/04 00:41:12;;;;;;;7.95;6.47;;;9.70;99.90;;;9.03;100.00;102992.91;4169317;28;20021;-73
2024/02/04 00:43:13;;;;;;;8.00;6.38;;;9.70;99.90;;;9.04;100.00;102984.94;4168072;28;20420;-73
2024/02/04 00:45:14;;;;;;;8.15;6.43;;;9.70;99.90;;;9.00;100.00;102978.16;4167997;28;20126;-73
2024/02/04 00:47:14;;;;;;;7.68;5.68;;;9.70;99.90;;;9.04;100.00;102991.97;4168033;28;20045;-73
2024/02/04 00:49:15;;;;;;;7.45;6.03;;;9.70;99.90;;;9.06;100.00;102998.84;4168060;28;20022;-73
2024/02/04 00:51:17;;;;;;;8.15;6.32;;;9.80;99.90;;;9.07;100.00;103002.31;4169207;28;20029;-73
2024/02/04 00:53:17;;;;;;;10.23;6.43;;;9.70;99.90;;;9.09;100.00;102998.66;4167675;28;20017;-73
2024/02/04 00:55:19;;;;;;;8.77;6.25;;;9.70;99.90;;;9.08;100.00;103011.94;4169021;28;20057;-73
2024/02/04 00:57:20;;;;;;;10.00;6.28;;;9.70;99.90;;;9.08;100.00;103001.41;4169095;28;20026;-73
2024/02/04 00:59:21;;;;;;;9.80;6.05;;;9.70;99.90;;;9.08;100.00;103014.56;4167886;28;20466;-73
2024/02/04 01:01:22;;;;;;;10.35;5.43;;;9.80;99.90;;;9.09;100.00;103017.09;4169003;28;20025;-73
2024/02/04 01:03:23;;;;;;;7.90;5.25;;;9.80;99.90;;;9.12;100.00;103029.22;4167732;28;20033;-73
2024/02/04 01:05:24;;;;;;;9.07;5.35;;;9.80;99.90;;;9.13;100.00;103021.25;4168592;28;20519;-73
2024/02/04 01:07:24;;;;;;;9.25;5.10;;;9.80;99.90;;;9.13;100.00;103015.97;4159424;28;20033;-73
2024/02/04 01:09:25;;;;;;;7.65;5.72;;;9.80;99.90;;;9.13;100.00;103008.09;4168826;28;20021;-73
2024/02/04 01:11:26;;;;;;;6.18;5.03;;;9.80;99.90;;;9.14;100.00;103001.03;4167546;28;20022;-73
2024/02/04 01:13:28;;;;;;;6.20;5.28;;;9.80;99.90;;;9.13;100.00;103004.59;4168570;28;20022;-73
2024/02/04 01:15:29;;;;;;;7.57;4.68;;;9.80;99.90;;;9.13;100.00;103004.59;4167698;28;20071;-73
2024/02/04 01:17:30;;;;;;;9.10;5.20;;;9.80;99.90;;;9.16;100.00;102999.16;4168940;28;20477;-73
2024/02/04 01:19:31;;;;;;;8.50;5.40;;;9.80;99.90;;;9.16;100.00;102992.09;4168750;28;20496;-73
2024/02/04 01:21:32;;;;;;;7.70;4.93;;;9.80;99.90;;;9.12;100.00;102984.47;4168772;28;20025;-73
2024/02/04 01:23:33;;;;;;;9.02;5.10;;;9.80;99.90;;;9.13;100.00;102980.91;4168572;28;20030;-73
2024/02/04 01:25:34;;;;;;;6.78;4.65;;;9.80;99.90;;;9.15;100.00;102986.91;4168820;28;20025;-73
2024/02/04 01:27:35;;;;;;;7.53;4.97;;;9.80;99.90;;;9.16;100.00;102989.47;4168674;28;20037;-73
2024/02/04 01:29:35;;;;;;;6.85;4.63;;;9.80;99.90;;;9.16;100.00;102983.34;4168632;28;20037;-73
2024/02/04 01:31:36;;;;;;;6.90;4.82;;;9.80;99.90;;;9.17;100.00;102972.72;4151098;28;20410;-73
2024/02/04 01:33:37;;;;;;;7.95;5.22;;;9.80;99.90;;;9.14;100.00;102977.34;4167447;28;20053;-73
2024/02/04 01:35:38;;;;;;;6.60;4.85;;;9.80;99.90;;;9.16;100.00;102978.09;4168615;28;20436;-73
2024/02/04 01:37:39;;;;;;;6.85;4.93;;;9.90;99.90;;;9.19;100.00;102975.25;4167121;28;20029;-73
2024/02/04 01:39:40;;;;;;;8.25;4.63;;;9.90;99.90;;;9.19;100.00;102978.75;4168626;28;20036;-73
2024/02/04 01:41:41;;;;;;;9.35;4.28;;;9.90;99.90;;;9.18;100.00;102977.03;4168565;28;20033;-73
2024/02/04 01:43:41;;;;;;;7.78;4.55;;;9.90;99.90;;;9.20;100.00;102980.44;4167052;28;20030;-73
2024/02/04 01:45:42;;;;;;;7.00;4.80;;;9.90;99.90;;;9.22;100.00;102982.97;4150746;28;20037;-73
2024/02/04 01:47:44;;;;;;;8.38;4.20;;;9.90;99.90;;;9.19;100.00;102967.38;4157611;28;20053;-73
2024/02/04 01:49:45;;;;;;;6.88;3.97;;;9.90;99.90;;;9.19;100.00;102975.25;4167326;28;20038;-73
2024/02/04 01:51:45;;;;;;;9.27;4.25;;;9.90;99.90;;;9.21;100.00;102968.09;4167339;28;20051;-73
2024/02/04 01:53:48;;;;;;;8.45;4.53;;;9.90;99.90;;;9.20;100.00;102975.16;4168141;28;20033;-73
2024/02/04 01:55:49;;;;;;;5.53;3.75;;;9.90;99.90;;;9.16;100.00;102971.03;4168600;28;20081;-73
2024/02/04 01:57:50;;;;;;;5.40;4.15;;;9.90;99.90;;;9.21;100.00;102978.66;4168450;28;20040;-73
2024/02/04 01:59:54;;;;;;;5.85;4.32;;;9.90;99.90;;;9.23;100.00;102974.13;4168442;28;20104;-73
2024/02/04 02:01:56;;;;;;;7.80;4.50;;;9.90;99.90;;;9.19;100.00;102972.63;4168456;28;20021;-73
2024/02/04 02:03:57;;;;;;;5.55;4.00;;;9.90;99.90;;;9.21;100.00;102979.50;4167122;28;20036;-73
2024/02/04 02:05:59;;;;;;;6.97;4.80;;;9.90;99.90;;;9.21;100.00;102968.09;4168496;28;20080;-73
2024/02/04 02:08:00;;;;;;;5.32;4.15;;;9.90;99.90;;;9.21;100.00;102974.22;4166883;28;20021;-73
2024/02/04 02:10:01;;;;;;;6.85;3.95;;;9.90;99.90;;;9.21;100.00;102965.47;4167084;28;20029;-73
2024/02/04 02:12:13;;;;;;;7.63;4.22;;;9.90;99.90;;;9.21;100.00;102961.06;4168392;28;20028;-73
2024/02/04 02:14:23;;;;;;;9.13;4.53;;;9.90;99.90;;;9.22;100.00;102954.00;4167104;28;20025;-73
2024/02/04 02:16:24;;;;;;;5.40;4.13;;;9.90;99.90;;;9.21;100.00;102961.06;4167083;28;20021;-73
2024/02/04 02:18:40;;;;;;;8.13;4.53;;;9.90;99.90;;;9.23;100.00;102955.69;4167258;28;20060;-73
2024/02/04 02:21:37;;;;;;;8.73;5.13;;;9.90;99.90;;;9.21;100.00;102944.41;4167778;28;20053;-73
2024/02/04 02:24:12;;;;;;;6.72;4.35;;;9.90;99.90;;;9.19;100.00;102941.03;4160110;28;20095;-73
2024/02/04 02:26:13;;;;;;;10.60;4.70;;;9.90;99.90;;;9.18;100.00;102940.19;4155350;28;20030;-73
2024/02/04 02:28:14;;;;;;;7.05;4.82;;;9.90;99.90;;;9.18;100.00;102941.97;4170005;28;20048;-73
2024/02/04 02:30:16;;;;;;;7.53;4.55;;;9.90;99.90;;;9.19;100.00;102943.66;4171513;28;20022;-73
2024/02/04 02:32:18;;;;;;;7.32;4.90;;;9.90;99.90;;;9.19;100.00;102935.78;4171292;28;20056;-73
2024/02/04 02:34:19;;;;;;;7.05;5.50;;;9.90;99.90;;;9.18;100.00;102934.06;4169972;28;20032;-73
2024/02/04 02:36:23;;;;;;;10.52;4.45;;;9.90;99.90;;;9.18;100.00;102927.03;4170082;28;20104;-73
2024/02/04 02:38:49;;;;;;;8.85;4.82;;;9.90;99.90;;;9.18;100.00;102923.53;4169879;28;20064;-73
2024/02/04 02:41:06;;;;;;;6.55;4.45;;;9.90;99.90;;;9.15;100.00;102923.72;4169736;28;20060;-73
2024/02/04 02:43:10;;;;;;;8.82;5.13;;;9.90;99.90;;;9.16;100.00;102914.88;4171123;28;20034;-73
2024/02/04 02:45:12;;;;;;;;;;;9.90;99.90;;;9.09;100.00;102905.66;4170210;28;20025;-73
2024/02/04 02:47:15;;;;;;;8.55;5.45;;;9.80;99.90;;;9.12;100.00;102916.00;4169612;28;19952;-73
2024/02/04 02:49:16;;;;;;;9.63;4.90;;;9.90;99.90;;;9.10;100.00;102910.00;4169909;28;20060;-73
2024/02/04 02:51:17;;;;;;;9.73;5.45;;;9.80;99.90;;;9.13;100.00;102907.19;4169927;28;20484;-73
2024/02/04 02:53:19;;;;;;;8.30;5.22;;;9.90;99.90;;;9.14;100.00;102903.63;4170700;28;20048;-73
2024/02/04 02:55:20;;;;;;;9.15;5.10;;;9.80;99.90;;;9.11;100.00;102906.44;4170863;28;20105;-73
2024/02/04 02:57:21;;;;;;;9.10;4.57;;;9.80;99.90;;;9.13;100.00;102915.94;4169722;28;20420;-73
2024/02/04 02:59:22;;;;;;;6.97;4.20;;;9.80;99.90;;;9.12;100.00;102913.38;4170455;28;20021;-73
2024/02/04 03:01:23;;;;;;;5.28;3.55;;;9.80;99.90;;;9.15;100.00;102915.81;4169797;28;20045;-73
2024/02/04 03:03:24;;;;;;;7.28;4.47;;;9.80;99.90;;;9.14;100.00;102908.88;4170648;28;20539;-73
2024/02/04 03:05:25;;;;;;;7.10;4.25;;;9.80;99.90;;;9.14;100.00;102908.88;4169727;28;20037;-73
2024/02/04 03:07:26;;;;;;;6.28;3.83;;;9.80;99.90;;;9.12;100.00;102905.47;4169386;28;20030;-73
2024/02/04 03:09:27;;;;;;;5.35;3.80;;;9.80;99.90;;;9.14;100.00;102917.59;4170646;28;20397;-73
2024/02/04 03:11:27;;;;;;;5.53;4.00;;;9.80;99.90;;;9.13;100.00;102917.72;4170620;28;20025;-73
2024/02/04 03:13:30;;;;;;;6.93;4.13;;;9.80;99.90;;;9.13;100.00;102921.19;4170921;28;20029;-73
2024/02/04 03:15:31;;;;;;;7.13;5.00;;;9.80;99.90;;;9.14;100.00;102908.88;4169499;28;20022;-73
2024/02/04 03:17:32;;;;;;;10.60;4.38;;;9.80;99.90;;;9.12;100.00;102913.38;4170488;28;20029;-73
2024/02/04 03:19:32;;;;;;;6.03;4.25;;;9.80;99.90;;;9.11;100.00;102914.34;4170605;28;20026;-73
2024/02/04 03:21:33;;;;;;;9.27;5.53;;;9.80;99.90;;;9.13;100.00;102905.41;4170612;28;20030;-73
2024/02/04 03:23:34;;;;;;;8.18;5.38;;;9.80;99.90;;;9.12;100.00;102906.31;4170277;28;20022;-73
2024/02/04 03:25:35;;;;;;;6.93;4.68;;;9.80;99.90;;;9.12;100.00;102902.84;4170485;28;20500;-73
2024/02/04 03:27:36;;;;;;;9.82;4.30;;;9.80;99.90;;;9.09;100.00;102903.88;4170428;28;20505;-73
2024/02/04 03:29:37;;;;;;;8.52;4.40;;;9.80;99.90;;;9.09;100.00;102898.63;4169264;28;20068;-73
2024/02/04 03:31:37;;;;;;;8.40;4.93;;;9.80;99.90;;;9.05;100.00;102877.84;4169295;28;20032;-73
2024/02/04 03:33:38;;;;;;;7.10;4.30;;;9.80;99.90;;;9.09;100.00;102887.22;4170415;28;20041;-73
2024/02/04 03:35:39;;;;;;;8.30;5.13;;;9.80;99.90;;;9.09;100.00;102889.88;4170262;28;20083;-73
2024/02/04 03:37:40;;;;;;;7.80;4.95;;;9.80;99.90;;;9.07;100.00;102892.59;4169869;28;20051;-73
2024/02/04 03:39:41;;;;;;;12.13;5.32;;;9.80;99.90;;;9.06;100.00;102887.41;4170374;28;20033;-73
2024/02/04 03:41:42;;;;;;;9.93;5.72;;;9.80;99.90;;;9.04;100.00;102887.53;4169200;28;20039;-74
2024/02/04 03:43:43;;;;;;;7.97;5.15;;;9.80;99.90;;;9.04;100.00;102890.16;4170117;28;20401;-73
2024/02/04 03:45:43;;;;;;;11.68;5.53;;;9.80;99.90;;;9.05;100.00;102891.84;4168777;28;20112;-73
2024/02/04 03:47:45;;;;;;;13.45;5.03;;;9.80;99.90;;;9.06;100.00;102898.81;4168518;28;20479;-73
2024/02/04 03:49:46;;;;;;;6.35;4.20;;;9.70;99.90;;;9.07;100.00;102895.25;4169775;28;20033;-73
2024/02/04 03:51:47;;;;;;;10.25;4.95;;;9.80;99.90;;;9.06;100.00;102898.81;4168900;28;20517;-73
2024/02/04 03:53:51;;;;;;;10.68;5.60;;;9.80;99.90;;;9.07;100.00;102902.28;4169662;28;20071;-73
2024/02/04 03:55:52;;;;;;;11.23;5.30;;;9.80;99.90;;;9.06;100.00;102908.47;4170071;28;20022;-73
2024/02/04 03:57:57;;;;;;;7.28;4.55;;;9.80;99.90;;;9.07;100.00;102900.50;4169982;28;20429;-73
2024/02/04 03:59:57;;;;;;;10.30;5.00;;;9.80;99.90;;;9.06;100.00;102904.06;4169895;28;20059;-73
2024/02/04 04:01:58;;;;;;;9.65;5.18;;;9.80;99.90;;;9.06;100.00;102901.44;4169803;28;20025;-73
2024/02/04 04:03:59;;;;;;;9.68;5.32;;;9.80;99.90;;;9.07;100.00;102899.66;4168606;28;20026;-73
2024/02/04 04:06:00;;;;;;;9.23;4.82;;;9.80;99.90;;;9.04;100.00;102892.78;4169898;28;20026;-73
2024/02/04 04:08:01;;;;;;;9.57;4.90;;;9.80;99.90;;;9.02;100.00;102893.84;4169347;28;20025;-73
2024/02/04 04:10:02;;;;;;;10.32;5.88;;;9.80;99.90;;;9.03;100.00;102899.00;4168607;28;20026;-73
2024/02/04 04:12:03;;;;;;;8.60;4.65;;;9.80;99.90;;;9.06;100.00;102905.84;4169858;28;20392;-73
2024/02/04 04:14:04;;;;;;;7.65;5.28;;;9.80;99.90;;;9.03;100.00;102908.66;4169695;28;20436;-73
2024/02/04 04:16:05;;;;;;;8.00;4.97;;;9.80;99.90;;;9.02;100.00;102907.81;4169631;28;20033;-73
2024/02/04 04:18:06;;;;;;;12.88;5.85;;;9.70;99.90;;;9.02;100.00;102905.19;4167869;28;20028;-73
2024/02/04 04:20:08;;;;;;;12.25;4.82;;;9.70;99.90;;;9.03;100.00;102908.66;4169673;28;20104;-73
2024/02/04 04:22:09;;;;;;;11.95;5.88;;;9.80;99.90;;;9.03;100.00;102904.25;4168222;28;20028;-73
2024/02/04 04:24:09;;;;;;;12.23;5.35;;;9.70;99.90;;;8.99;100.00;102891.38;4151835;28;20026;-73
2024/02/04 04:26:10;;;;;;;12.40;5.22;;;9.80;99.90;;;9.03;100.00;102903.41;4169544;28;20033;-73
2024/02/04 04:28:11;;;;;;;9.20;5.15;;;9.80;99.90;;;9.04;100.00;102899.84;4168326;28;20030;-73
2024/02/04 04:30:12;;;;;;;10.32;4.57;;;9.80;99.90;;;9.06;100.00;102901.44;4168324;28;20056;-73
2024/02/04 04:32:13;;;;;;;12.68;5.13;;;9.80;99.90;;;9.04;100.00;102900.69;4168208;28;20029;-73
2024/02/04 04:34:14;;;;;;;9.18;5.15;;;9.80;99.90;;;9.00;100.00;102904.44;4169275;28;20544;-73
2024/02/04 04:36:15;;;;;;;11.50;4.90;;;9.80;99.90;;;9.01;100.00;102900.03;4169458;28;20024;-73
2024/02/04 04:38:16;;;;;;;14.43;5.50;;;9.80;99.90;;;9.01;100.00;102892.97;4169200;28;20025;-73
2024/02/04 04:40:16;;;;;;;13.63;5.13;;;9.80;99.90;;;9.04;100.00;102899.84;4168154;28;20025;-73
2024/02/04 04:42:17;;;;;;;11.68;5.28;;;9.80;99.90;;;9.02;100.00;102896.47;4169180;28;20095;-73
2024/02/04 04:44:18;;;;;;;17.58;5.63;;;9.80;99.90;;;9.05;100.00;102904.19;4168014;28;20033;-73
2024/02/04 04:46:20;;;;;;;19.85;5.43;;;9.80;99.90;;;9.08;100.00;102904.00;4169156;28;20034;-73
2024/02/04 04:48:21;;;;;;;17.45;5.70;;;9.80;99.90;;;9.06;100.00;102897.94;4168354;28;20068;-73
2024/02/04 04:50:22;;;;;;;21.60;6.65;;;9.80;99.90;;;9.05;100.00;102896.28;4169125;28;20032;-73
2024/02/04 04:52:23;;;;;;;16.20;5.30;;;9.80;99.90;;;9.06;100.00;102903.22;4167758;28;20021;-73
2024/02/04 04:54:24;;;;;;;13.30;5.40;;;9.80;99.90;;;9.05;100.00;102896.28;4167835;28;20060;-73
2024/02/04 04:56:25;;;;;;;15.02;5.63;;;9.80;99.90;;;9.05;100.00;102906.81;4169069;28;20382;-73
2024/02/04 04:58:26;;;;;;;11.43;4.70;;;9.80;99.90;;;9.05;100.00;102896.28;4168911;28;20576;-73
2024/02/04 05:00:27;;;;;;;12.27;5.53;;;9.80;99.90;;;9.06;100.00;102906.69;4167811;28;20034;-73
2024/02/04 05:02:27;;;;;;;16.73;5.93;;;9.80;99.90;;;9.09;100.00;102913.56;4168959;28;20044;-73
2024/02/04 05:04:28;;;;;;;12.73;5.47;;;9.80;99.90;;;9.09;100.00;102908.28;4168468;28;20401;-73
2024/02/04 05:06:29;;;;;;;15.13;6.00;;;9.80;99.90;;;9.06;100.00;102913.75;4167765;28;20444;-73
2024/02/04 05:08:30;;;;;;;7.93;4.70;;;9.80;99.90;;;9.07;100.00;102907.56;4167373;28;20029;-73
2024/02/04 05:10:31;;;;;;;13.13;6.00;;;9.80;99.90;;;9.07;100.00;102904.91;4168983;28;20032;-73
2024/02/04 05:12:33;;;;;;;10.90;5.55;;;9.70;99.90;;;9.08;100.00;102912.72;4168883;28;20036;-73
2024/02/04 05:14:34;;;;;;;12.75;4.45;;;9.80;99.90;;;9.06;100.00;102906.69;4167543;28;20030;-73
2024/02/04 05:16:36;;;;;;;11.30;4.70;;;9.80;99.90;;;9.07;100.00;102911.03;4168906;28;20021;-73
2024/02/04 05:18:36;;;;;;;11.60;4.55;;;9.80;99.90;;;9.09;100.00;102908.28;4168926;28;20521;-73
2024/02/04 05:20:37;;;;;;;12.98;5.07;;;9.80;99.90;;;9.08;100.00;102915.34;4168855;28;20040;-73
2024/02/04 05:22:38;;;;;;;11.18;4.53;;;9.70;99.90;;;9.09;100.00;102910.94;4168545;28;20037;-73
2024/02/04 05:24:40;;;;;;;12.30;4.90;;;9.70;99.90;;;9.08;100.00;102915.34;4168616;28;20037;-73
2024/02/04 05:26:41;;;;;;;12.18;4.07;;;9.70;99.90;;;9.10;100.00;102917.91;4167518;28;20516;-73
2024/02/04 05:28:42;;;;;;;13.27;5.40;;;9.70;99.90;;;9.08;100.00;102914.53;4168656;28;20034;-73
2024/02/04 05:30:43;;;;;;;10.27;4.60;;;9.70;99.90;;;9.08;100.00;102922.41;4151044;28;20516;-73
2024/02/04 05:32:44;;;;;;;11.13;4.63;;;9.70;99.90;;;9.03;100.00;102913.94;4183946;28;20021;-73
2024/02/04 05:34:45;;;;;;;13.13;4.72;;;9.70;99.90;;;9.07;100.00;102916.31;4167425;28;20021;-73
2024/02/04 05:36:46;;;;;;;17.23;5.47;;;9.70;99.90;;;9.02;100.00;102920.16;4167448;28;20091;-73
2024/02/04 05:38:47;;;;;;;14.88;5.88;;;9.70;99.90;;;9.01;100.00;102915.81;4168417;28;20032;-73
2024/02/04 05:40:48;;;;;;;14.02;5.05;;;9.70;99.90;;;9.01;100.00;102919.31;4168522;28;20021;-73
2024/02/04 05:42:49;;;;;;;14.80;4.97;;;9.70;99.90;;;9.01;100.00;102914.03;4167509;28;20034;-73
2024/02/04 05:44:49;;;;;;;14.38;4.95;;;9.70;99.90;;;8.98;100.00;102908.09;4167255;28;20030;-73
2024/02/04 05:46:50;;;;;;;11.93;4.97;;;9.70;99.90;;;9.01;100.00;102910.56;4167052;28;20037;-73
2024/02/04 05:48:51;;;;;;;9.75;6.03;;;9.70;99.90;;;9.00;100.00;102908.84;4168396;28;20025;-73
2024/02/04 05:50:52;;;;;;;15.07;5.93;;;9.60;99.90;;;8.98;100.00;102913.38;4168588;28;20037;-73
2024/02/04 05:52:53;;;;;;;9.40;5.28;;;9.60;99.90;;;8.97;100.00;102903.78;4167174;28;20033;-73
2024/02/04 05:54:54;;;;;;;13.90;5.13;;;9.60;99.90;;;8.95;100.00;102900.41;4168350;28;20036;-73
2024/02/04 05:56:54;;;;;;;15.52;5.13;;;9.60;99.90;;;8.97;100.00;102903.78;4168016;28;20071;-73
2024/02/04 05:58:55;;;;;;;15.32;5.78;;;9.60;99.90;;;8.95;100.00;102908.28;4167417;28;20025;-73
2024/02/04 06:00:56;;;;;;;13.45;5.22;;;9.60;99.90;;;8.96;100.00;102905.56;4170131;28;20037;-73
2024/02/04 06:02:57;;;;;;;11.63;4.85;;;9.60;99.90;;;8.92;100.00;102898.81;4170404;28;20037;-73
2024/02/04 06:04:58;;;;;;;15.85;5.78;;;9.60;99.90;;;8.91;100.00;102902.38;4170469;28;20034;-73
2024/02/04 06:06:59;;;;;;;17.52;6.45;;;9.60;99.90;;;8.88;100.00;102900.75;4171739;28;20037;-73
2024/02/04 06:09:00;;;;;;;18.05;5.53;;;9.60;99.90;;;8.86;100.00;102897.38;4170936;28;20033;-72
2024/02/04 06:11:01;;;;;;;18.50;4.40;;;9.60;99.90;;;8.87;100.00;102898.22;4171648;28;20389;-73
2024/02/04 06:13:02;;;;;;;17.67;5.28;;;9.60;99.90;;;8.84;100.00;102893.97;4170351;28;20021;-73
2024/02/04 06:15:04;;;;;;;19.08;5.07;;;9.50;99.90;;;8.83;100.00;102887.06;4171726;28;20041;-73
2024/02/04 06:17:08;;;;;;;12.15;4.00;;;9.50;99.90;;;8.85;100.00;102894.84;4170489;28;20104;-73
2024/02/04 06:19:11;;;;;;;17.75;4.70;;;9.60;99.90;;;8.81;100.00;102896.78;4170197;28;20029;-73
2024/02/04 06:21:12;;;;;;;12.57;4.00;;;9.50;99.90;;;8.81;100.00;102894.16;4171437;28;20063;-73
2024/02/04 06:23:12;;;;;;;15.77;4.35;;;9.50;99.90;;;8.81;100.00;102895.97;4171282;28;20041;-73
2024/02/04 06:25:14;;;;;;;13.73;3.90;;;9.50;99.90;;;8.82;100.00;102901.13;4170333;28;20033;-73
2024/02/04 06:27:14;;;;;;;13.98;3.97;;;9.50;99.90;;;8.84;100.00;102901.06;4170365;28;20032;-73
2024/02/04 06:29:15;;;;;;;16.98;4.03;;;9.50;99.90;;;8.83;100.00;102897.56;4171233;28;20038;-73
2024/02/04 06:31:16;;;;;;;14.05;4.75;;;9.50;99.90;;;8.83;100.00;102899.34;4171432;28;20021;-73
2024/02/04 06:33:17;;;;;;;9.23;3.03;;;9.50;99.90;;;8.84;100.00;102907.16;4170146;28;20504;-73
2024/02/04 06:35:18;;;;;;;13.60;3.95;;;9.50;99.90;;;8.81;100.00;102896.78;4171315;28;20029;-73
2024/02/04 06:37:19;;;;;;;16.13;3.40;;;9.50;99.90;;;8.85;100.00;102905.34;4171021;28;20486;-73
2024/02/04 06:39:20;;;;;;;15.88;3.95;;;9.50;99.90;;;8.86;100.00;102900.03;4170009;28;20040;-73
2024/02/04 06:41:21;;;;;;;13.50;4.28;;;9.60;99.90;;;8.83;100.00;102889.69;4171224;28;20447;-73
2024/02/04 06:43:21;;;;;;;16.15;5.13;;;9.50;99.90;;;8.85;100.00;102900.09;4169961;28;20029;-73
2024/02/04 06:45:22;;;;;;;17.67;4.85;;;9.50;99.90;;;8.86;100.00;102893.91;4171016;28;20033;-73
2024/02/04 06:47:23;;;;;;;14.55;3.13;;;9.60;99.90;;;8.85;100.00;102894.84;4170923;28;20057;-73
2024/02/04 06:49:24;;;;;;;10.48;2.80;;;9.50;99.90;;;8.88;100.00;102903.41;4170101;28;20045;-73
2024/02/04 06:51:25;;;;;;;12.27;3.88;;;9.60;99.90;;;8.87;100.00;102893.81;4171154;28;20021;-73
2024/02/04 06:53:26;;;;;;;16.17;3.90;;;9.50;99.90;;;8.87;100.00;102890.31;4169477;28;20025;-73
2024/02/04 06:55:27;;;;;;;19.85;3.45;;;9.60;99.90;;;8.83;100.00;102889.69;4170863;28;20022;-73
2024/02/04 06:57:27;;;;;;;15.20;3.53;;;9.50;99.90;;;8.86;100.00;102901.81;4169968;28;20029;-73
2024/02/04 06:59:28;;;;;;;19.00;4.03;;;9.60;99.90;;;8.81;100.00;102893.34;4169823;28;20029;-73
2024/02/04 07:01:29;;;;;;;13.88;3.25;;;9.50;99.90;;;8.82;100.00;102898.50;4170863;28;20559;-73
2024/02/04 07:03:30;;;;;;;16.05;4.43;;;9.50;99.90;;;8.81;100.00;102896.78;4170643;28;20033;-73
2024/02/04 07:05:33;;;;;;;16.48;3.17;;;9.50;99.90;;;8.85;100.00;102890.44;4169720;28;20033;-73
2024/02/04 07:07:34;;;;;;;15.65;3.70;;;9.60;99.90;;;8.83;100.00;102888.81;4168727;28;20033;-73
2024/02/04 07:09:35;;;;;;;19.92;4.55;;;9.50;99.90;;;8.83;100.00;102897.56;4169506;28;20060;-73
2024/02/04 07:11:36;;;;;;;17.77;4.28;;;9.50;99.90;;;8.83;100.00;102892.31;4168816;28;20018;-73
2024/02/04 07:13:36;;;;;;;13.32;4.13;;;9.50;99.90;;;8.84;100.00;102903.69;4169570;28;20017;-73
2024/02/04 07:15:37;;;;;;;11.45;3.67;;;9.50;99.90;;;8.82;100.00;102893.25;4170703;28;20033;-73
2024/02/04 07:17:38;;;;;;;14.05;4.43;;;9.50;99.90;;;8.84;100.00;102901.88;4169408;28;20036;-73
2024/02/04 07:19:39;;;;;;;14.77;3.28;;;9.50;99.90;;;8.87;100.00;102906.09;4170507;28;20039;-73
2024/02/04 07:21:40;;;;;;;12.00;3.53;;;9.50;99.90;;;8.86;100.00;102901.81;4170639;28;20033;-73
2024/02/04 07:23:42;;;;;;;11.65;2.80;;;9.50;99.90;;;8.88;100.00;102900.75;4170318;28;20022;-73
2024/02/04 07:25:43;;;;;;;9.43;3.40;;;9.60;99.90;;;8.90;100.00;102916.44;4170485;28;20044;-73
2024/02/04 07:27:44;;;;;;;11.95;3.40;;;9.60;99.90;;;8.89;100.00;102918.25;4170306;28;20095;-73
2024/02/04 07:29:46;;;;;;;10.18;3.55;;;9.60;99.90;;;8.91;100.00;102915.53;4170073;28;20037;-73
2024/02/04 07:31:47;;;;;;;17.00;4.25;;;9.60;99.90;;;8.92;100.00;102919.84;4170322;28;20017;-73
2024/02/04 07:33:48;;;;;;;10.00;2.70;;;9.60;99.90;;;8.90;100.00;102914.66;4170279;28;20393;-73
2024/02/04 07:35:49;;;;;;;12.27;4.03;;;9.60;99.90;;;8.93;100.00;102923.34;4170255;28;20026;-73
2024/02/04 07:37:50;;;;;;;13.38;3.35;;;9.60;99.90;;;8.93;100.00;102924.16;4168921;28;20030;-73
2024/02/04 07:39:51;;;;;;;13.60;4.13;;;9.60;99.90;;;8.90;100.00;102919.94;4169009;28;20025;-73
2024/02/04 07:41:53;;;;;;;16.02;4.53;;;9.60;99.90;;;8.92;100.00;102929.53;4170160;28;20055;-73
2024/02/04 07:43:54;;;;;;;12.35;3.33;;;9.60;99.90;;;8.89;100.00;102920.03;4168876;28;20408;-73
2024/02/04 07:45:55;;;;;;;7.80;2.95;;;9.60;99.90;;;8.94;100.00;102925.00;4168818;28;20033;-73
2024/02/04 07:47:56;;;;;;;11.48;3.00;;;9.60;99.90;;;8.94;100.00;102919.75;4170036;28;20052;-73
2024/02/04 07:49:57;;;;;;;13.95;4.32;;;9.60;99.90;;;8.92;100.00;102916.38;4170014;28;20485;-73
2024/02/04 07:51:57;;;;;;;14.90;2.95;;;9.60;99.90;;;8.98;100.00;102923.91;4168619;28;20048;-73
2024/02/04 07:53:58;;;;;;;8.65;3.35;;;9.60;99.90;;;8.98;100.00;102913.38;4170066;28;20079;-73
2024/02/04 07:55:59;;;;;;;8.73;3.20;;;9.60;99.90;;;8.99;100.00;102918.53;4170065;28;20033;-73
2024/02/04 07:58:00;;;;;;;7.30;3.25;;;9.60;99.90;;;9.01;100.00;102915.81;4169421;28;20037;-73
2024/02/04 08:00:05;;;;;;;6.97;2.40;;;9.70;99.90;;;9.02;100.00;102928.88;4168242;28;20028;-73
2024/02/04 08:02:06;;;;;;;14.60;5.05;;;9.70;99.90;;;9.03;100.00;102920.03;4169357;28;20466;-73
2024/02/04 08:04:10;;;;;;;17.27;3.90;;;9.70;99.90;;;8.99;100.00;102915.91;4169615;28;20025;-73
2024/02/04 08:06:11;;;;;;;22.13;5.28;;;9.70;99.90;;;9.01;100.00;102916.66;4168416;28;20057;-73
2024/02/04 08:08:12;;;;;;;16.55;4.18;;;9.70;99.90;;;9.06;100.00;102932.19;4168286;28;20030;-73
2024/02/04 08:10:14;;;;;;;12.27;5.43;;;9.70;99.90;;;9.07;100.00;102928.63;4168500;28;20496;-73
2024/02/04 08:12:15;;;;;;;13.32;5.38;;;9.70;99.90;;;9.04;100.00;102926.16;4169558;28;20022;-73
2024/02/04 08:14:17;;;;;;;18.58;4.85;;;9.80;99.90;;;9.05;100.00;102923.44;4169524;28;20374;-73
2024/02/04 08:16:18;;;;;;;13.57;4.80;;;9.70;99.90;;;9.07;100.00;102916.31;4168288;28;20025;-72
2024/02/04 08:18:18;;;;;;;11.70;4.38;;;9.80;99.90;;;9.07;100.00;102921.56;4169263;28;20033;-73
2024/02/04 08:20:21;;;;;;;11.65;4.65;;;9.80;99.90;;;9.14;100.00;102925.50;4169866;28;20024;-73
2024/02/04 08:22:21;;;;;;;22.40;4.53;;;9.80;99.90;;;9.14;100.00;102922.88;4167918;28;20029;-73
2024/02/04 08:24:22;;;;;;;11.27;3.63;;;9.80;99.90;;;9.19;100.00;102925.22;4168865;28;20032;-73
2024/02/04 08:26:23;;;;;;;10.25;3.50;;;9.80;99.90;;;9.21;100.00;102926.81;4169513;28;20037;-73
2024/02/04 08:28:24;;;;;;;10.68;3.72;;;9.90;99.90;;;9.26;100.00;102926.53;4169643;28;20056;-73